< < Back
Terminal Aerodrome Forecast


Current Version              Previous Versions:   1  2  3  4  5  6  7  8  9  

Terminal Aerodrome Forecast

199
FTUS44 KMOB 301751
TAFPNS
TAF
KPNS 301751Z 3018/3118 06007KT P6SM SCT035
     FM302100 09012KT P6SM VCTS SCT035CB
     FM310300 07003KT P6SM SCT250
     FM311500 05009KT P6SM FEW250=

Latest METAR

351
SAUS70 KWBC 311400 RRL
MTRPNS
METAR KPNS 311353Z 04007KT 10SM CLR 27/22 A2990 RMK AO2 SLP125
T02720217


USA.gov is the U.S. government's official web portal to all federal, state and local government web resources and services.